Wednesday, August 20, 2014
06:56 UTC
  |  Log In   |  Register Free
Airport Search:

Rwj Airpark Airport
(54T)

Rwj Airpark Airport Diagram
No Airport Diagram Available

FAA data valid effective July 24, 2014 until September 18, 2014 (unless otherwise noted).

 
 
 
 
 
 
 
 
 
 
 
 
 
 

Current Aviation Weather for Rwj Airpark Airport (54T)

The most recent METAR observation for KEFD was updated at: 1750 UTC
METAR Summary (Translated METAR)
KEFD
281750Z 00000KT 10SM FEW030 SCT250 33/23 A3012
KHOU
(6.7 nm NW from KEFD)
281753Z 28007KT 10SM FEW040 SCT250 33/21 A3010 RMK AO2 SLP196 8/101 T03330211 10333 20244 58008
TAF Summary (Translated TAF)
KEFD
2004/2110 17007KT 9999 FEW050 SCT200 QNH2990INS TEMPO 2018/2023 15010G15KT 8000 -TSRA BKN035CB BECMG 2100/2101 16009KT 9999 FEW010 QNH2993INS TX34/2021Z TN25/2009Z
KHOU
(6.7 nm NW from KEFD)
200520Z 2006/2106 15003KT P6SM SCT250 FM201400 19009KT P6SM VCSH SCT040 FM201700 17012KT P6SM VCTS SCT050CB FM210300 17003KT P6SM SCT250
  Airport Weather Conditions for 54T

Current weather conditions are
not available for 54T


The nearest NOAA weather station
is at EFD, (18.7 nm SW from 54T)
  
 Current Weather at EFD
82° F
Mostly Cloudy
North winds at 0.0 mph
EFD NOAA Radar

Pressure: 29.95 in
Humidity: 84%
Wind: Calm
Dew Point: 77.0°F
Visibility: 10.00 mi


Airport Weather Forecast for 54T

Translated METAR and TAF for KEFD
Translated METAR for KEFD (0650 UTC 20 August 2014)
found at http://aviationweather.gov/adds/metars/
 
METAR text: KEFD 200550Z 00000KT 10SM BKN250 28/25 A2995
Conditions at: KEFD (HOUSTON/ELLINGTO, TX, US) observed 0550 UTC 20 August 2014
Temperature: 28.0°C (82°F)
Dewpoint: 25.0°C (77°F) [RH = 84%]
Pressure (altimeter): 29.95 inches Hg (1014.3 mb)
Winds: calm
Visibility: 10 or more miles (16+ km)
Ceiling: 25000 feet AGL
Clouds: broken clouds at 25000 feet AGL
Weather: no significant weather observed at this time
Translated TAF for KEFD
Forecast for: KEFD (HOUSTON/ELLINGTO, TX, US)
TAF Text: TAF KEFD 2004/2110 17007KT 9999 FEW050 SCT200 QNH2990INS
Forecast period: 0400 UTC 20 August 2014 to 0000 UTC 21 August 2014
Forecast type: FROM: standard forecast or significant change
Winds: from the S (170 degrees) at 8 MPH (7 knots; 3.6 m/s)
Visibility: 6 or more miles (10+ km)
Clouds: few clouds at 5000 feet AGL
scattered clouds at 20000 feet AGL
Weather: no significant weather forecast for this period
TAF Text: TEMPO 2018/2023 15010G15KT 8000 -TSRA BKN035CB
Forecast period: 1800 to 2300 UTC 20 August 2014
Forecast type: TEMPORARY: The following changes expected for less than half the time period
Winds: from the SSE (150 degrees) at 12 MPH (10 knots; 5.2 m/s)
gusting to 17 MPH (15 knots; 7.8 m/s)
Visibility: 5 miles (8 km)
Ceiling: 3500 feet AGL
Clouds: broken clouds at 3500 feet AGL
Weather: -TSRA  (light rain associated with thunderstorm(s))
TAF Text: BECMG 2100/2101 16009KT 9999 FEW010 QNH2993INS TX34/2021Z TN25/2009Z
Forecast period: 0000 to 1000 UTC 21 August 2014
Forecast type: BECOMING: Conditions expected to become as follows by 0100 UTC 21 August 2014
Winds: from the SSE (160 degrees) at 10 MPH (9 knots; 4.7 m/s)
Visibility: 6 or more miles (10+ km)
Clouds: few clouds at 1000 feet AGL
Weather: no significant weather forecast for this period

Find All Airport Services Find A Hotel Find A Rental Car Find A Golf Course Find A Restaurant $100 Hamburger



FBO's on the Field
FBO Company Facility Photos Services Transportation Aviation Fuel Prices: Prices include tax
Catering Weather Repair Courtesy Rental Type 100LL JetA JetA+ MOGAS 8087
 
Bay Area Aviation Inc

This FBO has not yet been rated
FS:Avfuel
Last Updated: Jul-25
Login to update fuel prices
SS:
Contact Bay Area Aviation IncMore FBO Information
 
Add another FBO Facility Photos Catering Weather Repair Courtesy Rental Type 100LL JetA JetA+ MOGAS 8087
Services Transportation Aviation Fuel Prices: Prices include tax


GlobalAir.com Airport Resource Center model-print
model-print
model-print
model-print